Etusivu
METAR-TAF:

METAR-TAF

Lentoasemat :

Goshen Municipal Airport

Goshen, Indiana, Yhdysvallat

Leveyspiiri: 41-31-34N, Pituuspiiri: 085-47-12W, korkeus merenpinnasta: 252 m

Tämänhetkinen sää

Tämä raportti tehtiin 11 minuuttia sitten, kello 14.53 UTC
Tuuli 9 kn etelästä/kaakosta
Lämpötila 15°C
Kosteus 88%
Ilmanpaine 1014 hPa
Näkyvyys: 16.1 km
Muutamia pilviä 900 ft:n korkeudessa
Hajonneita pilviä 8000 ft:n korkeudessa
Hajonneita pilviä 10000 ft:n korkeudessa

METAR: KGSH 221453Z AUTO 15009KT 10SM FEW009 BKN080 BKN100 15/13 A2993 RMK AO2 RAE21 SLP137 P0000 60008 T01500128 50003

Aika: 11:04 (15:04 UTC)


TAF: puuttuu

Säähavainnot ja -ennusteet yli 4000 lentoasemalta (METAR- ja TAF-raportit).

Käytössä olevat sääasemat on merkitty karttaan keltaisilla ja punaisilla pisteillä.

Aseta hiiri pisteen päälle nähdäksesi sääaseman nimen.

Klikkaa sitten nähdäksesi säähavainnot ja -ennusteet.

Kartan vaihtaminen: klikkaa mustalla rastilla varustettuja vihreitä pisteitä, niin voit zoomata sisään; viivalla varustettua vihreää pistettä, niin voit zoomata ulos tai vihreitä nuolia, niin pääset viereisille kartoille.


METAR-TAF: